Pagina principale
METAR-TAF:

METAR-TAF

Aeroporti :

Irene, Sudafrica

latitudine: 25-54-36S, longitudine: 28-12-40E, altezza: 1523 m

Osservazione

Il bollettino è stato emesso 2 ore e 1 minuti fa, alle 16:40 UTC
Vento 4 kt da sud-est
Temperature 21°C
Umidità 69%
Pressione 1017 hPa
Visibilità 10 km o più
Nubi sparse ad un'altezza di 3500 ft
Poco nuvoloso ad un'altezza di 4000 ft, Cumulonembo.
temporale, pioggia debole

METAR: FAIR 211640Z 13004KT 9999 -TSRA SCT035 FEW040CB 21/15 Q1017

Ora: 20:41 (18:41 UTC)


TAF: mancante

Osservazioni e previsioni meteorologiche di più di 4000 aeroporti (messaggi METAR e TAF).

Le stazioni disponibili sono rappresentate dai dischi gialli e rossi sulla carta.

Puntare il mouse per vedere il nome della stazione.

Clicca sopra per visualizzare le osservazioni e previsioni meteorologiche.

Per cambiare la mappa : fare clic sui pulsanti verdi con una croce nera per ingrandire, il pulsante verde con un trattino per diminuire, o sulla freccia verde per le mappe adiacenti.


METAR-TAF: